sensor_id;sensor_type;location;lat;lon;timestamp;temperature;humidity
31769;DHT22;18342;52.132;21.048;2022-11-15T00:01:46;6.90;99.90
31769;DHT22;18342;52.132;21.048;2022-11-15T00:04:11;6.90;99.90
31769;DHT22;18342;52.132;21.048;2022-11-15T00:06:37;7.00;99.90
31769;DHT22;18342;52.132;21.048;2022-11-15T00:09:03;7.00;99.90
31769;DHT22;18342;52.132;21.048;2022-11-15T00:11:29;6.90;99.90
31769;DHT22;18342;52.132;21.048;2022-11-15T00:13:56;6.80;99.90
31769;DHT22;18342;52.132;21.048;2022-11-15T00:16:22;6.80;99.90
31769;DHT22;18342;52.132;21.048;2022-11-15T00:18:48;6.90;99.90
31769;DHT22;18342;52.132;21.048;2022-11-15T00:21:14;6.90;99.90
31769;DHT22;18342;52.132;21.048;2022-11-15T00:23:40;6.90;99.90
31769;DHT22;18342;52.132;21.048;2022-11-15T00:26:06;7.00;99.90
31769;DHT22;18342;52.132;21.048;2022-11-15T00:28:32;6.90;99.90
31769;DHT22;18342;52.132;21.048;2022-11-15T00:31:03;6.80;99.90
31769;DHT22;18342;52.132;21.048;2022-11-15T00:33:29;6.90;99.90
31769;DHT22;18342;52.132;21.048;2022-11-15T00:36:08;6.90;99.90
31769;DHT22;18342;52.132;21.048;2022-11-15T00:38:38;7.00;99.90
31769;DHT22;18342;52.132;21.048;2022-11-15T00:41:06;6.90;99.90
31769;DHT22;18342;52.132;21.048;2022-11-15T00:43:32;6.90;99.90
31769;DHT22;18342;52.132;21.048;2022-11-15T00:45:58;6.90;99.90
31769;DHT22;18342;52.132;21.048;2022-11-15T00:48:24;6.80;99.90
31769;DHT22;18342;52.132;21.048;2022-11-15T00:50:49;6.70;99.90
31769;DHT22;18342;52.132;21.048;2022-11-15T00:53:16;6.70;99.90
31769;DHT22;18342;52.132;21.048;2022-11-15T00:55:42;6.60;99.90
31769;DHT22;18342;52.132;21.048;2022-11-15T00:58:08;6.70;99.90
31769;DHT22;18342;52.132;21.048;2022-11-15T01:00:34;6.60;99.90
31769;DHT22;18342;52.132;21.048;2022-11-15T01:03:00;6.70;99.90
31769;DHT22;18342;52.132;21.048;2022-11-15T01:05:27;6.60;99.90
31769;DHT22;18342;52.132;21.048;2022-11-15T01:07:53;6.60;99.90
31769;DHT22;18342;52.132;21.048;2022-11-15T01:10:19;6.50;99.90
31769;DHT22;18342;52.132;21.048;2022-11-15T01:12:46;6.50;99.90
31769;DHT22;18342;52.132;21.048;2022-11-15T01:15:11;6.50;99.90
31769;DHT22;18342;52.132;21.048;2022-11-15T01:17:37;6.50;99.90
31769;DHT22;18342;52.132;21.048;2022-11-15T01:20:03;6.60;99.90
31769;DHT22;18342;52.132;21.048;2022-11-15T01:22:29;6.60;99.90
31769;DHT22;18342;52.132;21.048;2022-11-15T01:24:55;6.60;99.90
31769;DHT22;18342;52.132;21.048;2022-11-15T01:27:20;6.60;99.90
31769;DHT22;18342;52.132;21.048;2022-11-15T01:29:46;6.60;99.90
31769;DHT22;18342;52.132;21.048;2022-11-15T01:32:12;6.70;99.90
31769;DHT22;18342;52.132;21.048;2022-11-15T01:34:38;6.80;99.90
31769;DHT22;18342;52.132;21.048;2022-11-15T01:37:03;6.70;99.90
31769;DHT22;18342;52.132;21.048;2022-11-15T01:39:29;6.50;99.90
31769;DHT22;18342;52.132;21.048;2022-11-15T01:41:55;6.50;99.90
31769;DHT22;18342;52.132;21.048;2022-11-15T01:44:47;6.50;99.90
31769;DHT22;18342;52.132;21.048;2022-11-15T01:50:19;6.60;99.90
31769;DHT22;18342;52.132;21.048;2022-11-15T01:52:46;6.70;99.90
31769;DHT22;18342;52.132;21.048;2022-11-15T01:55:18;6.80;99.90
31769;DHT22;18342;52.132;21.048;2022-11-15T01:57:46;6.80;99.90
31769;DHT22;18342;52.132;21.048;2022-11-15T02:00:13;6.70;99.90
31769;DHT22;18342;52.132;21.048;2022-11-15T02:02:39;6.70;99.90
31769;DHT22;18342;52.132;21.048;2022-11-15T02:05:05;6.70;99.90
31769;DHT22;18342;52.132;21.048;2022-11-15T02:07:32;6.70;99.90
31769;DHT22;18342;52.132;21.048;2022-11-15T02:10:04;6.60;99.90
31769;DHT22;18342;52.132;21.048;2022-11-15T02:12:32;6.60;99.90
31769;DHT22;18342;52.132;21.048;2022-11-15T02:14:58;6.60;99.90
31769;DHT22;18342;52.132;21.048;2022-11-15T02:29:03;6.80;99.90
31769;DHT22;18342;52.132;21.048;2022-11-15T02:42:35;6.80;99.90
31769;DHT22;18342;52.132;21.048;2022-11-15T02:45:25;6.80;99.90
31769;DHT22;18342;52.132;21.048;2022-11-15T02:47:54;6.70;99.90
31769;DHT22;18342;52.132;21.048;2022-11-15T02:50:23;6.80;99.90
31769;DHT22;18342;52.132;21.048;2022-11-15T02:52:50;6.80;99.90
31769;DHT22;18342;52.132;21.048;2022-11-15T02:55:37;6.80;99.90
31769;DHT22;18342;52.132;21.048;2022-11-15T03:01:18;6.90;99.90
31769;DHT22;18342;52.132;21.048;2022-11-15T03:06:28;6.80;99.90
31769;DHT22;18342;52.132;21.048;2022-11-15T03:11:23;6.80;99.90
31769;DHT22;18342;52.132;21.048;2022-11-15T03:17:36;6.70;99.90
31769;DHT22;18342;52.132;21.048;2022-11-15T03:20:06;6.70;99.90
31769;DHT22;18342;52.132;21.048;2022-11-15T03:22:39;6.60;99.90
31769;DHT22;18342;52.132;21.048;2022-11-15T03:25:09;6.50;99.90
31769;DHT22;18342;52.132;21.048;2022-11-15T03:27:39;6.60;99.90
31769;DHT22;18342;52.132;21.048;2022-11-15T03:30:07;6.60;99.90
31769;DHT22;18342;52.132;21.048;2022-11-15T03:32:48;6.70;99.90
31769;DHT22;18342;52.132;21.048;2022-11-15T03:35:22;6.70;99.90
31769;DHT22;18342;52.132;21.048;2022-11-15T03:40:41;6.60;99.90
31769;DHT22;18342;52.132;21.048;2022-11-15T03:45:54;6.50;99.90
31769;DHT22;18342;52.132;21.048;2022-11-15T03:48:24;6.50;99.90
31769;DHT22;18342;52.132;21.048;2022-11-15T03:50:50;6.50;99.90
31769;DHT22;18342;52.132;21.048;2022-11-15T03:53:16;6.40;99.90
31769;DHT22;18342;52.132;21.048;2022-11-15T03:55:42;6.30;99.90
31769;DHT22;18342;52.132;21.048;2022-11-15T03:58:08;6.30;99.90
31769;DHT22;18342;52.132;21.048;2022-11-15T04:00:33;6.40;99.90
31769;DHT22;18342;52.132;21.048;2022-11-15T04:02:59;6.40;99.90
31769;DHT22;18342;52.132;21.048;2022-11-15T04:05:25;6.50;99.90
31769;DHT22;18342;52.132;21.048;2022-11-15T04:07:50;6.50;99.90
31769;DHT22;18342;52.132;21.048;2022-11-15T04:10:16;6.50;99.90
31769;DHT22;18342;52.132;21.048;2022-11-15T04:12:44;6.50;99.90
31769;DHT22;18342;52.132;21.048;2022-11-15T04:15:15;6.60;99.90
31769;DHT22;18342;52.132;21.048;2022-11-15T04:17:43;6.60;99.90
31769;DHT22;18342;52.132;21.048;2022-11-15T04:20:18;6.60;99.90
31769;DHT22;18342;52.132;21.048;2022-11-15T04:23:05;6.60;99.90
31769;DHT22;18342;52.132;21.048;2022-11-15T04:25:52;6.60;99.90
31769;DHT22;18342;52.132;21.048;2022-11-15T04:28:18;6.60;99.90
31769;DHT22;18342;52.132;21.048;2022-11-15T04:30:44;6.50;99.90
31769;DHT22;18342;52.132;21.048;2022-11-15T04:33:10;6.40;99.90
31769;DHT22;18342;52.132;21.048;2022-11-15T04:35:36;6.40;99.90
31769;DHT22;18342;52.132;21.048;2022-11-15T04:38:03;6.40;99.90
31769;DHT22;18342;52.132;21.048;2022-11-15T04:40:29;6.40;99.90
31769;DHT22;18342;52.132;21.048;2022-11-15T04:42:55;6.30;99.90
31769;DHT22;18342;52.132;21.048;2022-11-15T04:45:20;6.30;99.90
31769;DHT22;18342;52.132;21.048;2022-11-15T04:47:46;6.30;99.90
31769;DHT22;18342;52.132;21.048;2022-11-15T04:50:13;6.30;99.90
31769;DHT22;18342;52.132;21.048;2022-11-15T04:52:50;6.30;99.90
31769;DHT22;18342;52.132;21.048;2022-11-15T04:55:16;6.10;99.90
31769;DHT22;18342;52.132;21.048;2022-11-15T04:57:41;6.20;99.90
31769;DHT22;18342;52.132;21.048;2022-11-15T05:00:10;6.20;99.90
31769;DHT22;18342;52.132;21.048;2022-11-15T05:02:36;6.20;99.90
31769;DHT22;18342;52.132;21.048;2022-11-15T05:05:20;6.20;99.90
31769;DHT22;18342;52.132;21.048;2022-11-15T05:07:46;6.20;99.90
31769;DHT22;18342;52.132;21.048;2022-11-15T05:10:12;6.30;99.90
31769;DHT22;18342;52.132;21.048;2022-11-15T05:12:38;6.30;99.90
31769;DHT22;18342;52.132;21.048;2022-11-15T05:15:04;6.30;99.90
31769;DHT22;18342;52.132;21.048;2022-11-15T05:17:29;6.30;99.90
31769;DHT22;18342;52.132;21.048;2022-11-15T05:19:55;6.30;99.90
31769;DHT22;18342;52.132;21.048;2022-11-15T05:22:21;6.30;99.90
31769;DHT22;18342;52.132;21.048;2022-11-15T05:24:47;6.30;99.90
31769;DHT22;18342;52.132;21.048;2022-11-15T05:27:13;6.30;99.90
31769;DHT22;18342;52.132;21.048;2022-11-15T05:29:38;6.30;99.90
31769;DHT22;18342;52.132;21.048;2022-11-15T05:32:06;6.30;99.90
31769;DHT22;18342;52.132;21.048;2022-11-15T05:34:32;6.40;99.90
31769;DHT22;18342;52.132;21.048;2022-11-15T05:36:58;6.40;99.90
31769;DHT22;18342;52.132;21.048;2022-11-15T05:39:24;6.40;99.90
31769;DHT22;18342;52.132;21.048;2022-11-15T05:41:58;6.40;99.90
31769;DHT22;18342;52.132;21.048;2022-11-15T05:44:25;6.40;99.90
31769;DHT22;18342;52.132;21.048;2022-11-15T05:46:52;6.30;99.90
31769;DHT22;18342;52.132;21.048;2022-11-15T05:49:21;6.40;99.90
31769;DHT22;18342;52.132;21.048;2022-11-15T05:51:48;6.40;99.90
31769;DHT22;18342;52.132;21.048;2022-11-15T05:54:15;6.40;99.90
31769;DHT22;18342;52.132;21.048;2022-11-15T05:56:41;6.40;99.90
31769;DHT22;18342;52.132;21.048;2022-11-15T05:59:08;6.40;99.90
31769;DHT22;18342;52.132;21.048;2022-11-15T06:01:34;6.40;99.90
31769;DHT22;18342;52.132;21.048;2022-11-15T06:04:00;6.40;99.90
31769;DHT22;18342;52.132;21.048;2022-11-15T06:06:28;6.40;99.90
31769;DHT22;18342;52.132;21.048;2022-11-15T06:08:53;6.40;99.90
31769;DHT22;18342;52.132;21.048;2022-11-15T06:11:19;6.40;99.90
31769;DHT22;18342;52.132;21.048;2022-11-15T06:13:45;6.40;99.90
31769;DHT22;18342;52.132;21.048;2022-11-15T06:16:10;6.50;99.90
31769;DHT22;18342;52.132;21.048;2022-11-15T06:18:37;6.50;99.90
31769;DHT22;18342;52.132;21.048;2022-11-15T06:21:02;6.50;99.90
31769;DHT22;18342;52.132;21.048;2022-11-15T06:23:31;6.50;99.90
31769;DHT22;18342;52.132;21.048;2022-11-15T06:26:01;6.50;99.90
31769;DHT22;18342;52.132;21.048;2022-11-15T06:28:29;6.50;99.90
31769;DHT22;18342;52.132;21.048;2022-11-15T06:30:55;6.50;99.90
31769;DHT22;18342;52.132;21.048;2022-11-15T06:33:21;6.50;99.90
31769;DHT22;18342;52.132;21.048;2022-11-15T06:35:46;6.40;99.90
31769;DHT22;18342;52.132;21.048;2022-11-15T06:38:12;6.30;99.90
31769;DHT22;18342;52.132;21.048;2022-11-15T06:40:39;6.30;99.90
31769;DHT22;18342;52.132;21.048;2022-11-15T06:43:05;6.30;99.90
31769;DHT22;18342;52.132;21.048;2022-11-15T06:45:31;6.40;99.90
31769;DHT22;18342;52.132;21.048;2022-11-15T06:47:58;6.40;99.90
31769;DHT22;18342;52.132;21.048;2022-11-15T06:50:24;6.40;99.90
31769;DHT22;18342;52.132;21.048;2022-11-15T06:52:50;6.40;99.90
31769;DHT22;18342;52.132;21.048;2022-11-15T06:55:15;6.30;99.90
31769;DHT22;18342;52.132;21.048;2022-11-15T06:57:49;6.40;99.90
31769;DHT22;18342;52.132;21.048;2022-11-15T07:00:16;6.30;99.90
31769;DHT22;18342;52.132;21.048;2022-11-15T07:02:43;6.30;99.90
31769;DHT22;18342;52.132;21.048;2022-11-15T07:05:08;6.30;99.90
31769;DHT22;18342;52.132;21.048;2022-11-15T07:07:34;6.30;99.90
31769;DHT22;18342;52.132;21.048;2022-11-15T07:09:59;6.30;99.90
31769;DHT22;18342;52.132;21.048;2022-11-15T07:12:25;6.30;99.90
31769;DHT22;18342;52.132;21.048;2022-11-15T07:14:51;6.30;99.90
31769;DHT22;18342;52.132;21.048;2022-11-15T07:17:16;6.40;99.90
31769;DHT22;18342;52.132;21.048;2022-11-15T07:19:42;6.30;99.90
31769;DHT22;18342;52.132;21.048;2022-11-15T07:22:08;6.40;99.90
31769;DHT22;18342;52.132;21.048;2022-11-15T07:24:33;6.40;99.90
31769;DHT22;18342;52.132;21.048;2022-11-15T07:26:59;6.40;99.90
31769;DHT22;18342;52.132;21.048;2022-11-15T07:29:25;6.40;99.90
31769;DHT22;18342;52.132;21.048;2022-11-15T07:31:50;6.40;99.90
31769;DHT22;18342;52.132;21.048;2022-11-15T07:34:16;6.40;99.90
31769;DHT22;18342;52.132;21.048;2022-11-15T07:36:42;6.50;99.90
31769;DHT22;18342;52.132;21.048;2022-11-15T07:39:08;6.40;99.90
31769;DHT22;18342;52.132;21.048;2022-11-15T07:41:34;6.40;99.90
31769;DHT22;18342;52.132;21.048;2022-11-15T07:44:00;6.40;99.90
31769;DHT22;18342;52.132;21.048;2022-11-15T07:46:27;6.40;99.90
31769;DHT22;18342;52.132;21.048;2022-11-15T07:48:52;6.40;99.90
31769;DHT22;18342;52.132;21.048;2022-11-15T07:51:20;6.40;99.90
31769;DHT22;18342;52.132;21.048;2022-11-15T07:53:45;6.30;99.90
31769;DHT22;18342;52.132;21.048;2022-11-15T07:56:11;6.40;99.90
31769;DHT22;18342;52.132;21.048;2022-11-15T07:58:37;6.40;99.90
31769;DHT22;18342;52.132;21.048;2022-11-15T08:01:07;6.40;99.90
31769;DHT22;18342;52.132;21.048;2022-11-15T08:03:34;6.50;99.90
31769;DHT22;18342;52.132;21.048;2022-11-15T08:06:00;6.40;99.90
31769;DHT22;18342;52.132;21.048;2022-11-15T08:08:26;6.50;99.90
31769;DHT22;18342;52.132;21.048;2022-11-15T08:10:51;6.50;99.90
31769;DHT22;18342;52.132;21.048;2022-11-15T08:13:17;6.40;99.90
31769;DHT22;18342;52.132;21.048;2022-11-15T08:15:43;6.40;99.90
31769;DHT22;18342;52.132;21.048;2022-11-15T08:18:15;6.30;99.90
31769;DHT22;18342;52.132;21.048;2022-11-15T08:20:41;6.30;99.90
31769;DHT22;18342;52.132;21.048;2022-11-15T08:23:09;6.30;99.90
31769;DHT22;18342;52.132;21.048;2022-11-15T08:25:36;6.30;99.90
31769;DHT22;18342;52.132;21.048;2022-11-15T08:28:05;6.30;99.90
31769;DHT22;18342;52.132;21.048;2022-11-15T08:30:35;6.30;99.90
31769;DHT22;18342;52.132;21.048;2022-11-15T08:33:01;6.30;99.90
31769;DHT22;18342;52.132;21.048;2022-11-15T08:35:28;6.30;99.90
31769;DHT22;18342;52.132;21.048;2022-11-15T08:37:53;6.30;99.90
31769;DHT22;18342;52.132;21.048;2022-11-15T08:40:19;6.30;99.90
31769;DHT22;18342;52.132;21.048;2022-11-15T08:42:48;6.40;99.90
31769;DHT22;18342;52.132;21.048;2022-11-15T08:45:14;6.40;99.90
31769;DHT22;18342;52.132;21.048;2022-11-15T08:47:40;6.40;99.90
31769;DHT22;18342;52.132;21.048;2022-11-15T08:50:07;6.40;99.90
31769;DHT22;18342;52.132;21.048;2022-11-15T08:52:33;6.50;99.90
31769;DHT22;18342;52.132;21.048;2022-11-15T08:54:58;6.40;99.90
31769;DHT22;18342;52.132;21.048;2022-11-15T08:57:24;6.50;99.90
31769;DHT22;18342;52.132;21.048;2022-11-15T08:59:50;6.50;99.90
31769;DHT22;18342;52.132;21.048;2022-11-15T09:02:15;6.50;99.90
31769;DHT22;18342;52.132;21.048;2022-11-15T09:04:42;6.50;99.90
31769;DHT22;18342;52.132;21.048;2022-11-15T09:07:09;6.50;99.90
31769;DHT22;18342;52.132;21.048;2022-11-15T09:09:35;6.60;99.90
31769;DHT22;18342;52.132;21.048;2022-11-15T09:12:00;6.60;99.90
31769;DHT22;18342;52.132;21.048;2022-11-15T09:14:26;6.50;99.90
31769;DHT22;18342;52.132;21.048;2022-11-15T09:16:51;6.50;99.90
31769;DHT22;18342;52.132;21.048;2022-11-15T09:19:17;6.50;99.90
31769;DHT22;18342;52.132;21.048;2022-11-15T09:21:43;6.50;99.90
31769;DHT22;18342;52.132;21.048;2022-11-15T09:24:09;6.50;99.90
31769;DHT22;18342;52.132;21.048;2022-11-15T09:26:34;6.50;99.90
31769;DHT22;18342;52.132;21.048;2022-11-15T09:29:00;6.50;99.90
31769;DHT22;18342;52.132;21.048;2022-11-15T09:31:27;6.50;99.90
31769;DHT22;18342;52.132;21.048;2022-11-15T09:33:52;6.50;99.90
31769;DHT22;18342;52.132;21.048;2022-11-15T09:36:18;6.40;99.90
31769;DHT22;18342;52.132;21.048;2022-11-15T09:38:44;6.50;99.90
31769;DHT22;18342;52.132;21.048;2022-11-15T09:48:57;6.50;99.90
31769;DHT22;18342;52.132;21.048;2022-11-15T09:51:40;6.50;99.90
31769;DHT22;18342;52.132;21.048;2022-11-15T09:57:09;6.60;99.90
31769;DHT22;18342;52.132;21.048;2022-11-15T10:03:15;6.70;99.90
31769;DHT22;18342;52.132;21.048;2022-11-15T10:05:16;6.70;99.90
31769;DHT22;18342;52.132;21.048;2022-11-15T10:12:51;6.70;99.90
31769;DHT22;18342;52.132;21.048;2022-11-15T10:15:18;6.80;99.90
31769;DHT22;18342;52.132;21.048;2022-11-15T10:18:13;6.70;99.90
31769;DHT22;18342;52.132;21.048;2022-11-15T10:21:35;6.80;99.90
31769;DHT22;18342;52.132;21.048;2022-11-15T10:23:34;6.80;99.90
31769;DHT22;18342;52.132;21.048;2022-11-15T10:26:00;6.70;99.90
31769;DHT22;18342;52.132;21.048;2022-11-15T10:28:28;6.70;99.90
31769;DHT22;18342;52.132;21.048;2022-11-15T10:30:57;6.70;99.90
31769;DHT22;18342;52.132;21.048;2022-11-15T10:35:48;6.70;99.90
31769;DHT22;18342;52.132;21.048;2022-11-15T10:38:14;6.70;99.90
31769;DHT22;18342;52.132;21.048;2022-11-15T10:40:40;6.70;99.90
31769;DHT22;18342;52.132;21.048;2022-11-15T10:45:35;6.80;99.90
31769;DHT22;18342;52.132;21.048;2022-11-15T10:50:41;6.90;99.90
31769;DHT22;18342;52.132;21.048;2022-11-15T10:53:42;6.90;99.90
31769;DHT22;18342;52.132;21.048;2022-11-15T10:56:08;7.00;99.90
31769;DHT22;18342;52.132;21.048;2022-11-15T10:58:49;7.00;99.90
31769;DHT22;18342;52.132;21.048;2022-11-15T11:01:27;7.00;99.90
31769;DHT22;18342;52.132;21.048;2022-11-15T11:04:12;6.90;99.90
31769;DHT22;18342;52.132;21.048;2022-11-15T11:06:56;7.00;99.90
31769;DHT22;18342;52.132;21.048;2022-11-15T11:09:33;7.00;99.90
31769;DHT22;18342;52.132;21.048;2022-11-15T11:12:00;7.00;99.90
31769;DHT22;18342;52.132;21.048;2022-11-15T11:14:27;7.00;99.90
31769;DHT22;18342;52.132;21.048;2022-11-15T11:17:21;7.00;99.90
31769;DHT22;18342;52.132;21.048;2022-11-15T11:20:20;7.00;99.90
31769;DHT22;18342;52.132;21.048;2022-11-15T11:28:42;7.10;99.90
31769;DHT22;18342;52.132;21.048;2022-11-15T11:36:57;7.20;99.90
31769;DHT22;18342;52.132;21.048;2022-11-15T11:47:56;7.40;99.90
31769;DHT22;18342;52.132;21.048;2022-11-15T11:50:26;7.40;99.90
31769;DHT22;18342;52.132;21.048;2022-11-15T11:53:12;7.40;99.90
31769;DHT22;18342;52.132;21.048;2022-11-15T11:55:46;7.50;99.90
31769;DHT22;18342;52.132;21.048;2022-11-15T12:01:09;7.50;99.90
31769;DHT22;18342;52.132;21.048;2022-11-15T12:06:59;7.50;99.90
31769;DHT22;18342;52.132;21.048;2022-11-15T12:09:45;7.50;99.90
31769;DHT22;18342;52.132;21.048;2022-11-15T12:12:42;7.50;99.90
31769;DHT22;18342;52.132;21.048;2022-11-15T12:15:15;7.50;99.90
31769;DHT22;18342;52.132;21.048;2022-11-15T12:17:42;7.50;99.90
31769;DHT22;18342;52.132;21.048;2022-11-15T12:20:22;7.50;99.90
31769;DHT22;18342;52.132;21.048;2022-11-15T12:23:15;7.60;99.90
31769;DHT22;18342;52.132;21.048;2022-11-15T12:25:53;7.60;99.90
31769;DHT22;18342;52.132;21.048;2022-11-15T12:31:13;7.60;99.90
31769;DHT22;18342;52.132;21.048;2022-11-15T12:39:04;7.70;99.90
31769;DHT22;18342;52.132;21.048;2022-11-15T12:41:35;7.70;99.90
31769;DHT22;18342;52.132;21.048;2022-11-15T12:44:02;7.70;99.90
31769;DHT22;18342;52.132;21.048;2022-11-15T12:49:02;7.70;99.90
31769;DHT22;18342;52.132;21.048;2022-11-15T13:17:48;7.70;99.90
31769;DHT22;18342;52.132;21.048;2022-11-15T13:28:09;7.80;99.90
31769;DHT22;18342;52.132;21.048;2022-11-15T13:30:36;7.80;99.90
31769;DHT22;18342;52.132;21.048;2022-11-15T13:33:13;7.80;99.90
31769;DHT22;18342;52.132;21.048;2022-11-15T13:35:41;7.80;99.90
31769;DHT22;18342;52.132;21.048;2022-11-15T13:40:56;7.90;99.90
31769;DHT22;18342;52.132;21.048;2022-11-15T13:46:15;7.90;99.90
31769;DHT22;18342;52.132;21.048;2022-11-15T13:48:43;7.90;99.90
31769;DHT22;18342;52.132;21.048;2022-11-15T13:51:24;7.90;99.90
31769;DHT22;18342;52.132;21.048;2022-11-15T13:59:31;8.00;99.90
31769;DHT22;18342;52.132;21.048;2022-11-15T14:02:01;8.00;99.90
31769;DHT22;18342;52.132;21.048;2022-11-15T14:04:28;8.00;99.90
31769;DHT22;18342;52.132;21.048;2022-11-15T14:06:59;8.00;99.90
31769;DHT22;18342;52.132;21.048;2022-11-15T14:12:01;8.00;99.90
31769;DHT22;18342;52.132;21.048;2022-11-15T14:14:29;8.00;99.90
31769;DHT22;18342;52.132;21.048;2022-11-15T14:16:59;7.90;99.90
31769;DHT22;18342;52.132;21.048;2022-11-15T14:24:39;7.90;99.90
31769;DHT22;18342;52.132;21.048;2022-11-15T14:27:26;8.00;99.90
31769;DHT22;18342;52.132;21.048;2022-11-15T14:29:52;7.90;99.90
31769;DHT22;18342;52.132;21.048;2022-11-15T14:32:27;7.90;99.90
31769;DHT22;18342;52.132;21.048;2022-11-15T14:35:01;7.90;99.90
31769;DHT22;18342;52.132;21.048;2022-11-15T14:37:32;7.90;99.90
31769;DHT22;18342;52.132;21.048;2022-11-15T14:40:02;7.90;99.90
31769;DHT22;18342;52.132;21.048;2022-11-15T14:42:28;7.90;99.90
31769;DHT22;18342;52.132;21.048;2022-11-15T14:44:54;7.90;99.90
31769;DHT22;18342;52.132;21.048;2022-11-15T14:47:20;7.90;99.90
31769;DHT22;18342;52.132;21.048;2022-11-15T14:49:46;7.90;99.90
31769;DHT22;18342;52.132;21.048;2022-11-15T14:52:32;7.90;99.90
31769;DHT22;18342;52.132;21.048;2022-11-15T14:55:03;7.90;99.90
31769;DHT22;18342;52.132;21.048;2022-11-15T14:57:29;7.90;99.90
31769;DHT22;18342;52.132;21.048;2022-11-15T14:59:55;7.90;99.90
31769;DHT22;18342;52.132;21.048;2022-11-15T15:02:26;7.90;99.90
31769;DHT22;18342;52.132;21.048;2022-11-15T15:04:52;7.90;99.90
31769;DHT22;18342;52.132;21.048;2022-11-15T15:07:19;7.90;99.90
31769;DHT22;18342;52.132;21.048;2022-11-15T15:09:45;7.90;99.90
31769;DHT22;18342;52.132;21.048;2022-11-15T15:12:16;7.90;99.90
31769;DHT22;18342;52.132;21.048;2022-11-15T15:14:43;7.90;99.90
31769;DHT22;18342;52.132;21.048;2022-11-15T15:17:08;7.90;99.90
31769;DHT22;18342;52.132;21.048;2022-11-15T15:19:34;7.90;99.90
31769;DHT22;18342;52.132;21.048;2022-11-15T15:22:00;7.90;99.90
31769;DHT22;18342;52.132;21.048;2022-11-15T15:24:25;7.80;99.90
31769;DHT22;18342;52.132;21.048;2022-11-15T15:26:51;7.90;99.90
31769;DHT22;18342;52.132;21.048;2022-11-15T15:29:17;7.90;99.90
31769;DHT22;18342;52.132;21.048;2022-11-15T15:31:42;7.80;99.90
31769;DHT22;18342;52.132;21.048;2022-11-15T15:34:08;7.80;99.90
31769;DHT22;18342;52.132;21.048;2022-11-15T15:36:34;7.80;99.90
31769;DHT22;18342;52.132;21.048;2022-11-15T15:38:59;7.80;99.90
31769;DHT22;18342;52.132;21.048;2022-11-15T15:41:25;7.80;99.90
31769;DHT22;18342;52.132;21.048;2022-11-15T15:43:51;7.80;99.90
31769;DHT22;18342;52.132;21.048;2022-11-15T15:46:19;7.80;99.90
31769;DHT22;18342;52.132;21.048;2022-11-15T15:48:45;7.80;99.90
31769;DHT22;18342;52.132;21.048;2022-11-15T15:51:11;7.80;99.90
31769;DHT22;18342;52.132;21.048;2022-11-15T15:53:37;7.80;99.90
31769;DHT22;18342;52.132;21.048;2022-11-15T15:56:03;7.80;99.90
31769;DHT22;18342;52.132;21.048;2022-11-15T15:58:29;7.80;99.90
31769;DHT22;18342;52.132;21.048;2022-11-15T16:00:54;7.80;99.90
31769;DHT22;18342;52.132;21.048;2022-11-15T16:03:20;7.90;99.90
31769;DHT22;18342;52.132;21.048;2022-11-15T16:05:46;7.80;99.90
31769;DHT22;18342;52.132;21.048;2022-11-15T16:08:20;7.80;99.90
31769;DHT22;18342;52.132;21.048;2022-11-15T16:10:46;7.80;99.90
31769;DHT22;18342;52.132;21.048;2022-11-15T16:13:11;7.80;99.90
31769;DHT22;18342;52.132;21.048;2022-11-15T16:15:37;7.80;99.90
31769;DHT22;18342;52.132;21.048;2022-11-15T16:18:04;7.80;99.90
31769;DHT22;18342;52.132;21.048;2022-11-15T16:20:39;7.80;99.90
31769;DHT22;18342;52.132;21.048;2022-11-15T16:23:11;7.80;99.90
31769;DHT22;18342;52.132;21.048;2022-11-15T16:25:49;7.80;99.90
31769;DHT22;18342;52.132;21.048;2022-11-15T16:28:30;7.80;99.90
31769;DHT22;18342;52.132;21.048;2022-11-15T16:31:05;7.80;99.90
31769;DHT22;18342;52.132;21.048;2022-11-15T16:33:31;7.80;99.90
31769;DHT22;18342;52.132;21.048;2022-11-15T16:35:56;7.80;99.90
31769;DHT22;18342;52.132;21.048;2022-11-15T16:38:22;7.80;99.90
31769;DHT22;18342;52.132;21.048;2022-11-15T16:40:48;7.80;99.90
31769;DHT22;18342;52.132;21.048;2022-11-15T16:43:14;7.80;99.90
31769;DHT22;18342;52.132;21.048;2022-11-15T16:45:39;7.70;99.90
31769;DHT22;18342;52.132;21.048;2022-11-15T16:48:05;7.70;99.90
31769;DHT22;18342;52.132;21.048;2022-11-15T16:50:33;7.70;99.90
31769;DHT22;18342;52.132;21.048;2022-11-15T16:53:05;7.70;99.90
31769;DHT22;18342;52.132;21.048;2022-11-15T16:55:31;7.70;99.90
31769;DHT22;18342;52.132;21.048;2022-11-15T16:57:57;7.70;99.90
31769;DHT22;18342;52.132;21.048;2022-11-15T17:00:26;7.60;99.90
31769;DHT22;18342;52.132;21.048;2022-11-15T17:02:52;7.60;99.90
31769;DHT22;18342;52.132;21.048;2022-11-15T17:05:21;7.60;99.90
31769;DHT22;18342;52.132;21.048;2022-11-15T17:07:49;7.60;99.90
31769;DHT22;18342;52.132;21.048;2022-11-15T17:10:16;7.50;99.90
31769;DHT22;18342;52.132;21.048;2022-11-15T17:12:42;7.60;99.90
31769;DHT22;18342;52.132;21.048;2022-11-15T17:15:11;7.50;99.90
31769;DHT22;18342;52.132;21.048;2022-11-15T17:17:36;7.50;99.90
31769;DHT22;18342;52.132;21.048;2022-11-15T17:20:02;7.50;99.90
31769;DHT22;18342;52.132;21.048;2022-11-15T17:22:29;7.50;99.90
31769;DHT22;18342;52.132;21.048;2022-11-15T17:24:55;7.50;99.90
31769;DHT22;18342;52.132;21.048;2022-11-15T17:27:21;7.50;99.90
31769;DHT22;18342;52.132;21.048;2022-11-15T17:29:48;7.50;99.90
31769;DHT22;18342;52.132;21.048;2022-11-15T17:32:13;7.50;99.90
31769;DHT22;18342;52.132;21.048;2022-11-15T17:34:39;7.50;99.90
31769;DHT22;18342;52.132;21.048;2022-11-15T17:37:05;7.50;99.90
31769;DHT22;18342;52.132;21.048;2022-11-15T17:39:30;7.50;99.90
31769;DHT22;18342;52.132;21.048;2022-11-15T17:41:56;7.50;99.90
31769;DHT22;18342;52.132;21.048;2022-11-15T17:44:22;7.50;99.90
31769;DHT22;18342;52.132;21.048;2022-11-15T17:46:47;7.50;99.90
31769;DHT22;18342;52.132;21.048;2022-11-15T17:49:13;7.50;99.90
31769;DHT22;18342;52.132;21.048;2022-11-15T17:51:38;7.50;99.90
31769;DHT22;18342;52.132;21.048;2022-11-15T17:54:04;7.50;99.90
31769;DHT22;18342;52.132;21.048;2022-11-15T17:56:30;7.50;99.90
31769;DHT22;18342;52.132;21.048;2022-11-15T17:58:58;7.50;99.90
31769;DHT22;18342;52.132;21.048;2022-11-15T18:01:30;7.50;99.90
31769;DHT22;18342;52.132;21.048;2022-11-15T18:03:57;7.40;99.90
31769;DHT22;18342;52.132;21.048;2022-11-15T18:06:25;7.40;99.90
31769;DHT22;18342;52.132;21.048;2022-11-15T18:08:52;7.40;99.90
31769;DHT22;18342;52.132;21.048;2022-11-15T18:11:28;7.40;99.90
31769;DHT22;18342;52.132;21.048;2022-11-15T18:13:57;7.40;99.90
31769;DHT22;18342;52.132;21.048;2022-11-15T18:16:25;7.40;99.90
31769;DHT22;18342;52.132;21.048;2022-11-15T18:18:54;7.40;99.90